EDHI/XFW METAR and TAF weather

Enter ICAO airport designator
Station Type Date Time Source
EDHI METAR 2021/05/10 02:20 UTC NOAA

EDHI 100220Z AUTO 20009KT 9999 // BKN190/// 19/07 Q1001


Station Type Date Time Source
EDHI Decoded METAR 2021/05/10 02:20 UTC NOAA

Hamburg-Finkenwerder, Germany (EDHI) 53-32N 009-50E 13M
May 09, 2021 - 10:20 PM EDT / 2021.05.10 0220 UTC
Wind: from the SSW (200 degrees) at 10 MPH (9 KT):0
Visibility: greater than 7 mile(s):0
Sky conditions: mostly cloudy
Temperature: 66 F (19 C)
Dew Point: 44 F (7 C)
Relative Humidity: 45%
Pressure (altimeter): 29.56 in. Hg (1001 hPa)
ob: EDHI 100220Z AUTO 20009KT 9999 // BKN190/// 19/07 Q1001
cycle: 2

Station Type Date Time Source
EDHI TAF 2010/02/22 14:20 UTC NOAA

METAR EDHI 221420Z 17005KT 9999 BKN030 05/02 Q0989

Example: see airport list